createdAt,value
2018-04-07T04:46:51.857Z,7.83
2018-04-07T04:49:23.762Z,6.93
2018-04-07T04:51:55.639Z,7.77
2018-04-07T04:54:27.525Z,9.70
2018-04-07T04:56:59.402Z,9.97
2018-04-07T04:59:31.274Z,8.23
2018-04-07T05:02:03.173Z,7.70
2018-04-07T05:04:35.044Z,9.13
2018-04-07T05:07:06.936Z,8.67
2018-04-07T05:09:38.819Z,9.00
2018-04-07T05:12:10.717Z,12.53
2018-04-07T05:14:42.609Z,8.60
2018-04-07T05:17:14.497Z,8.83
2018-04-07T05:19:46.363Z,7.60
2018-04-07T05:22:19.053Z,8.20
2018-04-07T05:24:50.904Z,7.67
2018-04-07T05:27:23.577Z,11.83
2018-04-07T05:29:56.236Z,9.07
2018-04-07T05:32:28.130Z,7.70
2018-04-07T05:35:00.768Z,7.73
2018-04-07T05:37:32.672Z,10.60
2018-04-07T05:40:05.307Z,6.60
2018-04-07T05:42:37.216Z,7.73
2018-04-07T05:45:09.385Z,8.97
2018-04-07T05:47:41.551Z,8.23
2018-04-07T05:50:13.431Z,7.30
2018-04-07T05:52:45.331Z,7.40
2018-04-07T05:55:17.539Z,7.97
2018-04-07T05:57:49.440Z,9.43
2018-04-07T06:00:21.326Z,8.20
2018-04-07T06:02:53.231Z,7.73
2018-04-07T06:05:25.123Z,9.53
2018-04-07T06:07:57.247Z,6.60
2018-04-07T06:10:29.135Z,9.93
2018-04-07T06:13:01.031Z,6.33
2018-04-07T06:15:32.916Z,6.93
2018-04-07T06:18:05.572Z,8.00
2018-04-07T06:20:37.471Z,6.60
2018-04-07T06:23:09.368Z,8.43
2018-04-07T06:25:41.256Z,10.07
2018-04-07T06:28:13.157Z,8.33
2018-04-07T06:30:45.035Z,7.53
2018-04-07T06:33:16.935Z,8.30
2018-04-07T06:35:48.816Z,7.17
2018-04-07T06:38:21.495Z,7.03
2018-04-07T06:40:54.155Z,9.57
2018-04-07T06:43:26.053Z,8.13
2018-04-07T06:45:57.944Z,7.22
2018-04-07T06:48:29.854Z,8.17
2018-04-07T06:51:02.487Z,8.43
2018-04-07T06:53:34.391Z,6.93
2018-04-07T06:56:07.288Z,7.97
2018-04-07T06:58:39.455Z,8.57
2018-04-07T07:01:11.364Z,8.73
2018-04-07T07:03:43.583Z,9.63
2018-04-07T07:06:15.467Z,8.95
2018-04-07T07:08:47.357Z,8.73
2018-04-07T07:11:19.244Z,8.40
2018-04-07T07:13:51.916Z,7.23
2018-04-07T07:16:23.795Z,8.50
2018-04-07T07:18:57.040Z,8.67
2018-04-07T07:21:28.924Z,8.60
2018-04-07T07:24:01.402Z,8.10
2018-04-07T07:26:33.280Z,7.90
2018-04-07T07:29:05.939Z,8.75
2018-04-07T07:31:37.815Z,9.50
2018-04-07T07:34:10.496Z,12.73
2018-04-07T07:36:42.437Z,14.47
2018-04-07T07:39:14.309Z,9.80
2018-04-07T07:41:46.968Z,9.67
2018-04-07T07:44:18.873Z,7.62
2018-04-07T07:46:50.756Z,8.18
2018-04-07T07:49:22.659Z,9.80
2018-04-07T07:51:54.541Z,7.90
2018-04-07T07:54:26.455Z,11.23
2018-04-07T07:56:58.326Z,9.40
2018-04-07T07:59:30.221Z,9.70
2018-04-07T08:02:02.855Z,13.03
2018-04-07T08:04:34.759Z,11.90
2018-04-07T08:07:07.453Z,8.90
2018-04-07T08:09:40.075Z,8.87
2018-04-07T08:12:12.186Z,8.73
2018-04-07T08:14:44.109Z,10.03
2018-04-07T08:17:17.448Z,10.37
2018-04-07T08:19:49.615Z,10.40
2018-04-07T08:22:21.487Z,9.60
2018-04-07T08:24:53.642Z,8.53
2018-04-07T08:27:25.514Z,10.20
2018-04-07T08:29:57.411Z,13.33
2018-04-07T08:32:29.283Z,11.77
2018-04-07T08:35:01.175Z,14.07
2018-04-07T08:37:33.343Z,10.93
2018-04-07T08:40:05.264Z,12.60
2018-04-07T08:42:37.139Z,9.60
2018-04-07T08:45:09.804Z,8.37
2018-04-07T08:47:41.681Z,11.87
2018-04-07T08:50:14.355Z,9.87
2018-04-07T08:52:46.557Z,9.90
2018-04-07T08:55:18.719Z,11.00
2018-04-07T08:57:50.595Z,8.57
2018-04-07T09:00:22.487Z,9.57
2018-04-07T09:02:54.376Z,10.30
2018-04-07T09:05:27.042Z,10.17
2018-04-07T09:07:58.961Z,12.90
2018-04-07T09:10:31.587Z,11.93
2018-04-07T09:13:04.252Z,10.47
2018-04-07T09:15:36.156Z,12.63
2018-04-07T09:18:08.040Z,14.80
2018-04-07T09:20:39.935Z,11.83
2018-04-07T09:23:12.142Z,15.43
2018-04-07T09:25:44.035Z,11.87
2018-04-07T09:28:16.165Z,12.93
2018-04-07T09:30:48.077Z,12.53
2018-04-07T09:33:19.969Z,11.30
2018-04-07T09:35:52.645Z,10.97
2018-04-07T09:38:25.294Z,12.20
2018-04-07T09:40:57.188Z,11.77
2018-04-07T09:43:29.823Z,15.03
2018-04-07T09:46:01.720Z,11.83
2018-04-07T09:48:34.623Z,13.07
2018-04-07T09:51:06.527Z,14.57
2018-04-07T09:53:38.651Z,12.90
2018-04-07T09:56:10.564Z,15.20
2018-04-07T09:58:42.442Z,14.57
2018-04-07T10:01:14.334Z,16.67
2018-04-07T10:03:46.215Z,14.20
2018-04-07T10:06:18.124Z,16.43
2018-04-07T10:08:49.996Z,15.23
2018-04-07T10:11:22.676Z,12.13
2018-04-07T10:13:55.579Z,16.57
2018-04-07T10:16:27.479Z,12.60
2018-04-07T10:18:59.360Z,12.47
2018-04-07T10:21:31.262Z,11.97
2018-04-07T10:24:03.933Z,13.53
2018-04-07T10:26:35.824Z,15.77
2018-04-07T10:29:07.711Z,14.93
2018-04-07T10:31:39.620Z,15.77
2018-04-07T10:34:11.505Z,14.30
2018-04-07T10:36:43.404Z,15.13
2018-04-07T10:39:15.292Z,16.30
2018-04-07T10:41:48.285Z,16.10
2018-04-07T10:44:20.201Z,15.10
2018-04-07T10:46:52.412Z,12.40
2018-04-07T10:49:24.286Z,17.10
2018-04-07T10:51:56.192Z,12.90
2018-04-07T10:54:28.078Z,12.93
2018-04-07T10:57:00.739Z,12.70
2018-04-07T10:59:32.625Z,12.93
2018-04-07T11:02:05.284Z,12.87
2018-04-07T11:04:37.933Z,15.30
2018-04-07T11:07:10.051Z,14.17
2018-04-07T11:09:42.037Z,12.47
2018-04-07T11:12:13.929Z,14.37
2018-04-07T11:14:45.799Z,11.73
2018-04-07T11:17:17.730Z,13.63
2018-04-07T11:19:49.607Z,12.17
2018-04-07T11:22:21.503Z,12.83
2018-04-07T11:24:54.145Z,12.80
2018-04-07T11:27:26.047Z,12.67
2018-04-07T11:29:58.722Z,12.77
2018-04-07T11:32:30.818Z,12.53
2018-04-07T11:35:02.705Z,13.27
2018-04-07T11:37:34.618Z,15.00
2018-04-07T11:40:07.296Z,15.00
2018-04-07T11:42:39.979Z,12.13
2018-04-07T11:45:11.855Z,14.10
2018-04-07T11:47:44.005Z,12.17
2018-04-07T11:50:15.879Z,11.60
2018-04-07T11:52:47.770Z,15.77
2018-04-07T11:55:19.651Z,11.75
2018-04-07T11:57:51.851Z,11.93
2018-04-07T12:00:23.736Z,13.57
2018-04-07T12:02:55.640Z,11.57
2018-04-07T12:05:27.575Z,12.37
2018-04-07T12:07:59.486Z,10.13
2018-04-07T12:10:32.138Z,11.53
2018-04-07T12:13:04.029Z,11.93
2018-04-07T12:15:35.908Z,11.60
2018-04-07T12:18:07.828Z,11.73
2018-04-07T12:20:40.471Z,11.70
2018-04-07T12:23:13.137Z,13.20
2018-04-07T12:25:45.020Z,11.63
2018-04-07T12:28:16.926Z,9.50
2018-04-07T12:30:48.822Z,10.32
2018-04-07T12:33:20.731Z,12.17
2018-04-07T12:35:53.379Z,12.80
2018-04-07T12:38:25.277Z,10.43
2018-04-07T12:40:57.918Z,11.23
2018-04-07T12:43:29.894Z,12.57
2018-04-07T12:46:01.798Z,10.20
2018-04-07T12:48:33.697Z,12.70
2018-04-07T12:51:05.576Z,10.00
2018-04-07T12:53:37.532Z,11.20
2018-04-07T12:56:09.439Z,10.07
2018-04-07T12:58:41.343Z,10.65
2018-04-07T13:01:13.254Z,13.53
2018-04-07T13:03:45.163Z,12.30
2018-04-07T13:06:17.039Z,15.98
2018-04-07T13:08:48.939Z,12.68
2018-04-07T13:11:20.820Z,11.10
2018-04-07T13:13:52.963Z,13.38
2018-04-07T13:16:25.127Z,12.60
2018-04-07T13:18:57.816Z,14.38
2018-04-07T13:21:29.688Z,12.45
2018-04-07T13:24:01.609Z,15.32
2018-04-07T13:26:34.308Z,12.13
2018-04-07T13:29:06.190Z,12.93
2018-04-07T13:31:38.088Z,10.25
2018-04-07T13:34:10.266Z,12.40
2018-04-07T13:36:42.361Z,16.05
2018-04-07T13:39:14.263Z,11.77
2018-04-07T13:41:46.162Z,11.48
2018-04-07T13:44:18.112Z,13.60
2018-04-07T13:46:49.995Z,12.73
2018-04-07T13:49:22.655Z,15.68
2018-04-07T13:51:55.299Z,13.98
2018-04-07T13:54:27.199Z,13.52
2018-04-07T13:56:59.848Z,16.80
2018-04-07T13:59:31.761Z,13.20
2018-04-07T14:02:04.412Z,13.30
2018-04-07T14:04:37.071Z,14.50
2018-04-07T14:07:08.952Z,13.05
2018-04-07T14:09:41.639Z,32.03
2018-04-07T14:12:14.283Z,30.10
2018-04-07T14:14:46.175Z,20.88
2018-04-07T14:17:18.814Z,13.43
2018-04-07T14:19:50.720Z,12.25
2018-04-07T14:22:23.354Z,12.95
2018-04-07T14:24:55.264Z,10.95
2018-04-07T14:27:27.436Z,10.77
2018-04-07T14:29:59.366Z,10.68
2018-04-07T14:32:32.055Z,10.32
2018-04-07T14:35:04.718Z,15.40
2018-04-07T14:37:36.599Z,12.27
2018-04-07T14:40:09.271Z,10.18
2018-04-07T14:42:41.918Z,12.85
2018-04-07T14:45:13.832Z,11.15
2018-04-07T14:47:45.716Z,9.70
2018-04-07T14:50:17.632Z,12.40
2018-04-07T14:52:50.288Z,10.50
2018-04-07T14:55:22.200Z,9.18
2018-04-07T14:57:54.095Z,12.75
2018-04-07T15:00:25.990Z,13.07
2018-04-07T15:02:58.638Z,9.77
2018-04-07T15:05:30.556Z,9.98
2018-04-07T15:08:02.720Z,9.40
2018-04-07T15:10:34.887Z,8.75
2018-04-07T15:13:06.772Z,11.18
2018-04-07T15:15:38.680Z,9.57
2018-04-07T15:18:11.858Z,7.95
2018-04-07T15:20:43.743Z,6.95
2018-04-07T15:23:16.400Z,10.80
2018-04-07T15:25:48.293Z,7.62
2018-04-07T15:28:20.485Z,12.75
2018-04-07T15:30:52.377Z,8.60
2018-04-07T15:33:24.264Z,8.15
2018-04-07T15:35:56.931Z,10.43
2018-04-07T15:38:30.412Z,10.88
2018-04-07T15:41:02.308Z,9.20
2018-04-07T15:43:34.960Z,9.55
2018-04-07T15:46:06.855Z,6.90
2018-04-07T15:48:38.744Z,7.55
2018-04-07T15:51:10.662Z,6.70
2018-04-07T15:53:43.307Z,9.23
2018-04-07T15:56:15.221Z,7.70
2018-04-07T15:58:47.103Z,9.68
2018-04-07T16:01:19.010Z,7.75
2018-04-07T16:03:50.877Z,7.30
2018-04-07T16:06:23.907Z,8.05
2018-04-07T16:08:55.783Z,9.52
2018-04-07T16:11:27.916Z,8.25
2018-04-07T16:14:00.089Z,10.70
2018-04-07T16:16:31.983Z,8.15
2018-04-07T16:19:04.111Z,8.75
2018-04-07T16:21:36.277Z,11.30
2018-04-07T16:24:08.169Z,9.23
2018-04-07T16:26:40.068Z,7.82
2018-04-07T16:29:12.716Z,5.78
2018-04-07T16:31:44.603Z,6.12
2018-04-07T16:34:16.481Z,10.30
2018-04-07T16:36:49.161Z,6.97
2018-04-07T16:39:21.808Z,11.18
2018-04-07T16:41:53.720Z,10.45
2018-04-07T16:44:25.608Z,7.00
2018-04-07T16:46:57.494Z,9.52
2018-04-07T16:49:29.704Z,8.65
2018-04-07T16:52:01.596Z,6.70
2018-04-07T16:54:33.467Z,8.73
2018-04-07T16:57:05.695Z,6.43
2018-04-07T16:59:37.852Z,7.70
2018-04-07T17:02:09.967Z,11.25
2018-04-07T17:04:41.843Z,8.68
2018-04-07T17:07:13.749Z,5.75
2018-04-07T17:09:45.909Z,10.32
2018-04-07T17:12:17.820Z,9.07
2018-04-07T17:14:49.707Z,6.07
2018-04-07T17:17:22.379Z,8.38
2018-04-07T17:19:54.261Z,9.60
2018-04-07T17:22:26.181Z,8.32
2018-04-07T17:24:58.056Z,5.85
2018-04-07T17:27:30.032Z,12.90
2018-04-07T17:30:02.936Z,6.80
2018-04-07T17:32:34.848Z,9.10
2018-04-07T17:35:06.726Z,9.27
2018-04-07T17:37:39.400Z,7.37
2018-04-07T17:40:11.292Z,7.47
2018-04-07T17:42:43.184Z,6.85
2018-04-07T17:45:15.060Z,8.57
2018-04-07T17:47:46.946Z,7.22
2018-04-07T17:50:18.832Z,9.73
2018-04-07T17:52:50.724Z,6.47
2018-04-07T17:55:22.599Z,9.60
2018-04-07T17:57:54.495Z,10.73
2018-04-07T18:00:27.144Z,6.75
2018-04-07T18:02:59.036Z,7.82
2018-04-07T18:05:31.675Z,7.22
2018-04-07T18:08:03.590Z,6.65
2018-04-07T18:10:35.520Z,9.52
2018-04-07T18:13:08.182Z,9.88
2018-04-07T18:15:40.293Z,9.30
2018-04-07T18:18:12.204Z,7.60
2018-04-07T18:20:44.084Z,8.40
2018-04-07T18:23:15.979Z,8.10
2018-04-07T18:25:47.859Z,9.75
2018-04-07T18:28:19.750Z,8.67
2018-04-07T18:30:51.627Z,7.00
2018-04-07T18:33:23.533Z,5.73
2018-04-07T18:35:55.406Z,9.27
2018-04-07T18:38:27.295Z,6.57
2018-04-07T18:40:59.194Z,12.97
2018-04-07T18:43:31.103Z,10.73
2018-04-07T18:46:02.987Z,7.00
2018-04-07T18:48:34.888Z,12.37
2018-04-07T18:51:06.771Z,9.10
2018-04-07T18:53:38.663Z,6.97
2018-04-07T18:56:10.864Z,6.70
2018-04-07T18:58:42.772Z,9.17
2018-04-07T19:01:14.644Z,9.37
2018-04-07T19:03:46.851Z,7.60
2018-04-07T19:06:18.735Z,9.37
2018-04-07T19:08:50.618Z,9.40
2018-04-07T19:11:22.493Z,9.03
2018-04-07T19:13:54.389Z,8.73
2018-04-07T19:16:26.270Z,11.03
2018-04-07T19:18:58.167Z,9.23
2018-04-07T19:21:30.054Z,8.50
2018-04-07T19:24:02.703Z,9.73
2018-04-07T19:26:34.598Z,6.60
2018-04-07T19:29:06.516Z,7.37
2018-04-07T19:31:38.394Z,8.57
2018-04-07T19:34:10.296Z,11.47
2018-04-07T19:36:42.183Z,7.83
2018-04-07T19:39:14.084Z,8.97
2018-04-07T19:41:45.984Z,6.33
2018-04-07T19:44:17.935Z,10.77
2018-04-07T19:46:50.579Z,12.07
2018-04-07T19:49:22.475Z,7.80
2018-04-07T19:51:54.592Z,9.73
2018-04-07T19:54:26.506Z,10.97
2018-04-07T19:56:58.400Z,10.80
2018-04-07T19:59:30.300Z,9.17
2018-04-07T20:02:02.948Z,8.67
2018-04-07T20:04:34.951Z,12.10
2018-04-07T20:07:07.591Z,10.77
2018-04-07T20:09:39.484Z,10.90
2018-04-07T20:12:12.143Z,13.53
2018-04-07T20:14:44.348Z,15.03
2018-04-07T20:17:16.516Z,11.10
2018-04-07T20:19:48.407Z,15.00
2018-04-07T20:22:20.538Z,12.93
2018-04-07T20:24:52.436Z,11.53
2018-04-07T20:27:24.316Z,9.87
2018-04-07T20:29:56.272Z,10.00
2018-04-07T20:32:28.146Z,14.33
2018-04-07T20:35:00.035Z,15.33
2018-04-07T20:37:32.675Z,12.13
2018-04-07T20:40:04.567Z,12.80
2018-04-07T20:42:37.467Z,11.80
2018-04-07T20:45:09.368Z,11.20
2018-04-07T20:47:41.248Z,11.30
2018-04-07T20:50:13.150Z,13.07
2018-04-07T20:52:45.032Z,15.27
2018-04-07T20:55:17.175Z,14.30
2018-04-07T20:57:49.052Z,14.00
2018-04-07T21:00:20.964Z,13.67
2018-04-07T21:02:52.841Z,12.10
2018-04-07T21:05:25.521Z,13.07
2018-04-07T21:07:58.159Z,13.00
2018-04-07T21:10:30.048Z,12.03
2018-04-07T21:13:02.700Z,11.87
2018-04-07T21:15:34.615Z,10.27
2018-04-07T21:18:06.531Z,16.50
2018-04-07T21:20:38.431Z,15.20
2018-04-07T21:23:10.595Z,15.20
2018-04-07T21:25:42.500Z,13.10
2018-04-07T21:28:14.624Z,14.40
2018-04-07T21:30:46.533Z,11.87
2018-04-07T21:33:18.415Z,14.90
2018-04-07T21:35:50.304Z,13.70
2018-04-07T21:38:22.179Z,11.20
2018-04-07T21:40:54.099Z,10.33
2018-04-07T21:43:25.984Z,11.60
2018-04-07T21:45:57.895Z,16.23
2018-04-07T21:48:29.776Z,12.93
2018-04-07T21:51:01.682Z,11.83
2018-04-07T21:53:33.648Z,10.30
2018-04-07T21:56:05.897Z,11.07
2018-04-07T21:58:37.781Z,11.50
2018-04-07T22:01:09.667Z,11.50
2018-04-07T22:03:41.542Z,11.93
2018-04-07T22:06:13.555Z,10.37
2018-04-07T22:08:45.424Z,13.97
2018-04-07T22:11:17.339Z,11.10
2018-04-07T22:13:49.527Z,11.43
2018-04-07T22:16:21.427Z,10.60
2018-04-07T22:18:54.576Z,10.70
2018-04-07T22:21:26.744Z,11.30
